Terminal Aerodrome Forecast
Issued by NWS Cleveland, OH

Home | Current Version | Previous Version | Graphics & Text | Print | Product List | Glossary Off
Versions: 1 2 3 4 5 6 7 8 9 10 11 12 13 14 15 16 17 18 19 20 21 22 23 24 25 26 27 28 29

000
FTUS41 KCLE 251100
TAFCLE
TAF
KCLE 251131Z 2512/2618 VRB04KT P6SM SCT250
     FM251500 24008KT P6SM SCT050 SCT250
     FM260000 22006KT P6SM SCT120 OVC250
     FM260600 22006KT P6SM BKN120 OVC200=

USA.gov is the U.S. government's official web portal to all federal, state and local government web resources and services.